Terminal Aerodrome Forecast
Issued by NWS

Current Version | Previous Version | Text Only | Print | Product List | Glossary On
Versions: 1 2 3 4 5 6 7 8 9 10 11 12 13
000
FTUS45 KGGW 231100
TAFGDV
TAF
KGDV 231132Z 2312/2412 11010KT P6SM BKN120
     FM231300 VRB05KT P6SM SCT035 BKN070
     FM231500 27020G30KT P6SM VCSH SCT025 BKN050
     FM240100 26012KT P6SM SCT100 BKN250
      AMD LTD TO CLD VIS AND WIND=

USA.gov is the U.S. government's official web portal to all federal, state and local government web resources and services.